sensor_id;sensor_type;location;lat;lon;timestamp;P1;durP1;ratioP1;P2;durP2;ratioP2
6485;SDS011;3276;48.490;9.222;2023-11-21T00:00:00;3.20;;;1.30;;
6485;SDS011;3276;48.490;9.222;2023-11-21T00:02:25;2.87;;;1.10;;
6485;SDS011;3276;48.490;9.222;2023-11-21T00:04:52;2.47;;;1.43;;
6485;SDS011;3276;48.490;9.222;2023-11-21T00:07:17;2.37;;;1.30;;
6485;SDS011;3276;48.490;9.222;2023-11-21T00:09:43;3.50;;;1.17;;
6485;SDS011;3276;48.490;9.222;2023-11-21T00:12:08;4.23;;;1.63;;
6485;SDS011;3276;48.490;9.222;2023-11-21T00:14:35;4.63;;;1.30;;
6485;SDS011;3276;48.490;9.222;2023-11-21T00:17:01;3.70;;;1.13;;
6485;SDS011;3276;48.490;9.222;2023-11-21T00:19:27;7.10;;;1.47;;
6485;SDS011;3276;48.490;9.222;2023-11-21T00:21:53;2.47;;;1.00;;
6485;SDS011;3276;48.490;9.222;2023-11-21T00:24:18;1.93;;;0.77;;
6485;SDS011;3276;48.490;9.222;2023-11-21T00:26:44;2.47;;;1.40;;
6485;SDS011;3276;48.490;9.222;2023-11-21T00:29:10;2.43;;;1.13;;
6485;SDS011;3276;48.490;9.222;2023-11-21T00:31:35;2.50;;;1.10;;
6485;SDS011;3276;48.490;9.222;2023-11-21T00:34:02;2.43;;;1.03;;
6485;SDS011;3276;48.490;9.222;2023-11-21T00:36:30;3.70;;;1.20;;
6485;SDS011;3276;48.490;9.222;2023-11-21T00:38:56;2.30;;;1.00;;
6485;SDS011;3276;48.490;9.222;2023-11-21T00:41:22;1.87;;;0.73;;
6485;SDS011;3276;48.490;9.222;2023-11-21T00:43:48;4.20;;;1.50;;
6485;SDS011;3276;48.490;9.222;2023-11-21T00:46:13;2.37;;;1.27;;
6485;SDS011;3276;48.490;9.222;2023-11-21T00:48:39;3.30;;;1.00;;
6485;SDS011;3276;48.490;9.222;2023-11-21T00:51:04;1.80;;;0.87;;
6485;SDS011;3276;48.490;9.222;2023-11-21T00:53:31;2.63;;;1.17;;
6485;SDS011;3276;48.490;9.222;2023-11-21T00:55:57;1.73;;;1.00;;
6485;SDS011;3276;48.490;9.222;2023-11-21T00:58:25;2.50;;;0.87;;
6485;SDS011;3276;48.490;9.222;2023-11-21T01:00:51;1.87;;;0.60;;
6485;SDS011;3276;48.490;9.222;2023-11-21T01:03:17;2.10;;;0.70;;
6485;SDS011;3276;48.490;9.222;2023-11-21T01:05:43;1.53;;;0.60;;
6485;SDS011;3276;48.490;9.222;2023-11-21T01:08:10;3.10;;;1.13;;
6485;SDS011;3276;48.490;9.222;2023-11-21T01:10:35;2.43;;;0.80;;
6485;SDS011;3276;48.490;9.222;2023-11-21T01:13:01;2.27;;;1.00;;
6485;SDS011;3276;48.490;9.222;2023-11-21T01:15:29;4.23;;;1.13;;
6485;SDS011;3276;48.490;9.222;2023-11-21T01:17:54;1.87;;;0.70;;
6485;SDS011;3276;48.490;9.222;2023-11-21T01:20:20;5.03;;;0.80;;
6485;SDS011;3276;48.490;9.222;2023-11-21T01:22:45;1.60;;;0.60;;
6485;SDS011;3276;48.490;9.222;2023-11-21T01:25:14;2.83;;;0.80;;
6485;SDS011;3276;48.490;9.222;2023-11-21T01:27:41;1.40;;;0.40;;
6485;SDS011;3276;48.490;9.222;2023-11-21T01:30:06;1.80;;;0.57;;
6485;SDS011;3276;48.490;9.222;2023-11-21T01:32:35;2.20;;;0.90;;
6485;SDS011;3276;48.490;9.222;2023-11-21T01:35:01;1.97;;;0.60;;
6485;SDS011;3276;48.490;9.222;2023-11-21T01:37:27;3.03;;;0.93;;
6485;SDS011;3276;48.490;9.222;2023-11-21T01:39:53;1.80;;;0.93;;
6485;SDS011;3276;48.490;9.222;2023-11-21T01:42:21;1.60;;;0.50;;
6485;SDS011;3276;48.490;9.222;2023-11-21T01:44:46;2.13;;;0.70;;
6485;SDS011;3276;48.490;9.222;2023-11-21T01:47:12;4.27;;;0.70;;
6485;SDS011;3276;48.490;9.222;2023-11-21T01:49:39;1.90;;;0.70;;
6485;SDS011;3276;48.490;9.222;2023-11-21T01:52:04;1.70;;;0.60;;
6485;SDS011;3276;48.490;9.222;2023-11-21T01:54:31;1.60;;;0.70;;
6485;SDS011;3276;48.490;9.222;2023-11-21T01:56:57;2.00;;;0.70;;
6485;SDS011;3276;48.490;9.222;2023-11-21T01:59:27;1.60;;;0.57;;
6485;SDS011;3276;48.490;9.222;2023-11-21T02:01:59;1.67;;;0.53;;
6485;SDS011;3276;48.490;9.222;2023-11-21T02:04:24;2.03;;;0.60;;
6485;SDS011;3276;48.490;9.222;2023-11-21T02:06:50;2.27;;;0.80;;
6485;SDS011;3276;48.490;9.222;2023-11-21T02:09:16;1.50;;;0.50;;
6485;SDS011;3276;48.490;9.222;2023-11-21T02:11:42;1.90;;;0.70;;
6485;SDS011;3276;48.490;9.222;2023-11-21T02:14:09;5.17;;;0.80;;
6485;SDS011;3276;48.490;9.222;2023-11-21T02:16:35;1.60;;;0.50;;
6485;SDS011;3276;48.490;9.222;2023-11-21T02:19:02;3.03;;;0.70;;
6485;SDS011;3276;48.490;9.222;2023-11-21T02:21:34;1.83;;;0.80;;
6485;SDS011;3276;48.490;9.222;2023-11-21T02:24:01;2.33;;;0.50;;
6485;SDS011;3276;48.490;9.222;2023-11-21T02:26:26;1.60;;;0.60;;
6485;SDS011;3276;48.490;9.222;2023-11-21T02:28:52;2.30;;;0.57;;
6485;SDS011;3276;48.490;9.222;2023-11-21T02:31:18;2.37;;;0.93;;
6485;SDS011;3276;48.490;9.222;2023-11-21T02:33:44;1.60;;;0.70;;
6485;SDS011;3276;48.490;9.222;2023-11-21T02:36:09;1.83;;;0.50;;
6485;SDS011;3276;48.490;9.222;2023-11-21T02:38:35;1.70;;;0.60;;
6485;SDS011;3276;48.490;9.222;2023-11-21T02:41:00;2.40;;;0.63;;
6485;SDS011;3276;48.490;9.222;2023-11-21T02:43:26;1.90;;;0.73;;
6485;SDS011;3276;48.490;9.222;2023-11-21T02:45:51;1.77;;;0.70;;
6485;SDS011;3276;48.490;9.222;2023-11-21T02:48:17;1.90;;;0.50;;
6485;SDS011;3276;48.490;9.222;2023-11-21T02:50:42;1.40;;;0.50;;
6485;SDS011;3276;48.490;9.222;2023-11-21T02:53:08;4.13;;;1.00;;
6485;SDS011;3276;48.490;9.222;2023-11-21T02:55:35;1.40;;;0.40;;
6485;SDS011;3276;48.490;9.222;2023-11-21T02:58:01;2.80;;;0.80;;
6485;SDS011;3276;48.490;9.222;2023-11-21T03:00:28;1.40;;;0.40;;
6485;SDS011;3276;48.490;9.222;2023-11-21T03:02:55;1.60;;;0.50;;
6485;SDS011;3276;48.490;9.222;2023-11-21T03:05:21;2.03;;;0.60;;
6485;SDS011;3276;48.490;9.222;2023-11-21T03:07:46;1.50;;;0.50;;
6485;SDS011;3276;48.490;9.222;2023-11-21T03:10:12;1.50;;;0.60;;
6485;SDS011;3276;48.490;9.222;2023-11-21T03:12:38;1.77;;;0.60;;
6485;SDS011;3276;48.490;9.222;2023-11-21T03:15:07;1.60;;;0.80;;
6485;SDS011;3276;48.490;9.222;2023-11-21T03:17:33;2.10;;;0.60;;
6485;SDS011;3276;48.490;9.222;2023-11-21T03:19:59;1.50;;;0.50;;
6485;SDS011;3276;48.490;9.222;2023-11-21T03:22:25;2.87;;;0.60;;
6485;SDS011;3276;48.490;9.222;2023-11-21T03:24:51;3.17;;;0.70;;
6485;SDS011;3276;48.490;9.222;2023-11-21T03:27:17;2.07;;;0.67;;
6485;SDS011;3276;48.490;9.222;2023-11-21T03:29:43;1.80;;;0.77;;
6485;SDS011;3276;48.490;9.222;2023-11-21T03:32:09;2.20;;;0.70;;
6485;SDS011;3276;48.490;9.222;2023-11-21T03:34:41;1.50;;;0.50;;
6485;SDS011;3276;48.490;9.222;2023-11-21T03:37:20;1.40;;;0.40;;
6485;SDS011;3276;48.490;9.222;2023-11-21T03:39:45;2.33;;;0.63;;
6485;SDS011;3276;48.490;9.222;2023-11-21T03:42:12;1.97;;;0.60;;
6485;SDS011;3276;48.490;9.222;2023-11-21T03:44:37;2.57;;;0.53;;
6485;SDS011;3276;48.490;9.222;2023-11-21T03:47:03;2.07;;;0.80;;
6485;SDS011;3276;48.490;9.222;2023-11-21T03:49:28;1.90;;;0.60;;
6485;SDS011;3276;48.490;9.222;2023-11-21T03:51:54;1.50;;;0.40;;
6485;SDS011;3276;48.490;9.222;2023-11-21T03:54:20;1.40;;;0.40;;
6485;SDS011;3276;48.490;9.222;2023-11-21T03:56:46;1.43;;;0.43;;
6485;SDS011;3276;48.490;9.222;2023-11-21T03:59:11;1.50;;;0.50;;
6485;SDS011;3276;48.490;9.222;2023-11-21T04:01:37;1.50;;;0.47;;
6485;SDS011;3276;48.490;9.222;2023-11-21T04:04:02;1.40;;;0.40;;
6485;SDS011;3276;48.490;9.222;2023-11-21T04:06:29;1.50;;;0.40;;
6485;SDS011;3276;48.490;9.222;2023-11-21T04:08:54;1.83;;;0.60;;
6485;SDS011;3276;48.490;9.222;2023-11-21T04:11:20;1.47;;;0.43;;
6485;SDS011;3276;48.490;9.222;2023-11-21T04:13:45;1.50;;;0.63;;
6485;SDS011;3276;48.490;9.222;2023-11-21T04:16:11;1.40;;;0.50;;
6485;SDS011;3276;48.490;9.222;2023-11-21T04:18:38;3.40;;;0.90;;
6485;SDS011;3276;48.490;9.222;2023-11-21T04:21:04;1.40;;;0.50;;
6485;SDS011;3276;48.490;9.222;2023-11-21T04:23:30;3.00;;;0.67;;
6485;SDS011;3276;48.490;9.222;2023-11-21T04:25:57;1.43;;;0.50;;
6485;SDS011;3276;48.490;9.222;2023-11-21T04:28:25;4.03;;;0.50;;
6485;SDS011;3276;48.490;9.222;2023-11-21T04:30:51;1.90;;;0.60;;
6485;SDS011;3276;48.490;9.222;2023-11-21T04:33:17;1.60;;;0.60;;
6485;SDS011;3276;48.490;9.222;2023-11-21T04:35:42;1.60;;;0.50;;
6485;SDS011;3276;48.490;9.222;2023-11-21T04:38:08;3.20;;;0.70;;
6485;SDS011;3276;48.490;9.222;2023-11-21T04:40:33;1.80;;;0.50;;
6485;SDS011;3276;48.490;9.222;2023-11-21T04:42:59;2.17;;;0.60;;
6485;SDS011;3276;48.490;9.222;2023-11-21T04:45:24;1.70;;;0.50;;
6485;SDS011;3276;48.490;9.222;2023-11-21T04:47:50;2.10;;;0.53;;
6485;SDS011;3276;48.490;9.222;2023-11-21T04:50:17;2.07;;;0.77;;
6485;SDS011;3276;48.490;9.222;2023-11-21T04:52:43;1.60;;;0.50;;
6485;SDS011;3276;48.490;9.222;2023-11-21T04:55:09;1.80;;;0.60;;
6485;SDS011;3276;48.490;9.222;2023-11-21T04:57:35;1.93;;;0.80;;
6485;SDS011;3276;48.490;9.222;2023-11-21T05:00:02;1.70;;;0.60;;
6485;SDS011;3276;48.490;9.222;2023-11-21T05:02:30;1.87;;;0.80;;
6485;SDS011;3276;48.490;9.222;2023-11-21T05:04:59;1.97;;;0.93;;
6485;SDS011;3276;48.490;9.222;2023-11-21T05:07:25;1.60;;;0.70;;
6485;SDS011;3276;48.490;9.222;2023-11-21T05:09:53;4.10;;;1.43;;
6485;SDS011;3276;48.490;9.222;2023-11-21T05:12:22;1.90;;;0.80;;
6485;SDS011;3276;48.490;9.222;2023-11-21T05:14:49;3.00;;;0.90;;
6485;SDS011;3276;48.490;9.222;2023-11-21T05:17:15;2.03;;;0.60;;
6485;SDS011;3276;48.490;9.222;2023-11-21T05:19:40;2.00;;;0.73;;
6485;SDS011;3276;48.490;9.222;2023-11-21T05:22:06;1.90;;;0.80;;
6485;SDS011;3276;48.490;9.222;2023-11-21T05:24:33;2.43;;;1.13;;
6485;SDS011;3276;48.490;9.222;2023-11-21T05:27:00;2.23;;;0.93;;
6485;SDS011;3276;48.490;9.222;2023-11-21T05:29:25;2.80;;;1.23;;
6485;SDS011;3276;48.490;9.222;2023-11-21T05:31:51;2.57;;;1.10;;
6485;SDS011;3276;48.490;9.222;2023-11-21T05:34:17;1.83;;;0.80;;
6485;SDS011;3276;48.490;9.222;2023-11-21T05:36:43;1.70;;;0.80;;
6485;SDS011;3276;48.490;9.222;2023-11-21T05:39:10;2.03;;;0.97;;
6485;SDS011;3276;48.490;9.222;2023-11-21T05:41:36;2.80;;;0.70;;
6485;SDS011;3276;48.490;9.222;2023-11-21T05:44:02;1.80;;;0.50;;
6485;SDS011;3276;48.490;9.222;2023-11-21T05:46:27;2.33;;;0.97;;
6485;SDS011;3276;48.490;9.222;2023-11-21T05:48:53;2.10;;;0.73;;
6485;SDS011;3276;48.490;9.222;2023-11-21T05:51:19;4.13;;;1.20;;
6485;SDS011;3276;48.490;9.222;2023-11-21T05:53:45;2.00;;;0.83;;
6485;SDS011;3276;48.490;9.222;2023-11-21T05:56:11;2.37;;;0.80;;
6485;SDS011;3276;48.490;9.222;2023-11-21T05:58:38;3.00;;;0.60;;
6485;SDS011;3276;48.490;9.222;2023-11-21T06:01:05;1.47;;;0.63;;
6485;SDS011;3276;48.490;9.222;2023-11-21T06:03:32;2.40;;;0.80;;
6485;SDS011;3276;48.490;9.222;2023-11-21T06:05:58;2.30;;;0.77;;
6485;SDS011;3276;48.490;9.222;2023-11-21T06:08:23;4.87;;;0.80;;
6485;SDS011;3276;48.490;9.222;2023-11-21T06:10:49;2.60;;;1.43;;
6485;SDS011;3276;48.490;9.222;2023-11-21T06:13:15;7.47;;;1.80;;
6485;SDS011;3276;48.490;9.222;2023-11-21T06:15:41;2.07;;;1.33;;
6485;SDS011;3276;48.490;9.222;2023-11-21T06:18:07;3.40;;;1.37;;
6485;SDS011;3276;48.490;9.222;2023-11-21T06:20:35;2.73;;;1.30;;
6485;SDS011;3276;48.490;9.222;2023-11-21T06:23:02;2.43;;;1.30;;
6485;SDS011;3276;48.490;9.222;2023-11-21T06:25:28;2.57;;;0.90;;
6485;SDS011;3276;48.490;9.222;2023-11-21T06:27:54;3.70;;;1.50;;
6485;SDS011;3276;48.490;9.222;2023-11-21T06:30:20;1.97;;;1.10;;
6485;SDS011;3276;48.490;9.222;2023-11-21T06:32:46;2.20;;;1.00;;
6485;SDS011;3276;48.490;9.222;2023-11-21T06:35:12;4.20;;;1.33;;
6485;SDS011;3276;48.490;9.222;2023-11-21T06:37:38;1.97;;;0.93;;
6485;SDS011;3276;48.490;9.222;2023-11-21T06:40:04;3.10;;;1.40;;
6485;SDS011;3276;48.490;9.222;2023-11-21T06:42:31;1.73;;;0.90;;
6485;SDS011;3276;48.490;9.222;2023-11-21T06:44:58;2.47;;;1.37;;
6485;SDS011;3276;48.490;9.222;2023-11-21T06:47:24;2.40;;;1.23;;
6485;SDS011;3276;48.490;9.222;2023-11-21T06:49:50;2.37;;;1.10;;
6485;SDS011;3276;48.490;9.222;2023-11-21T06:52:19;1.80;;;1.10;;
6485;SDS011;3276;48.490;9.222;2023-11-21T06:54:45;2.23;;;1.20;;
6485;SDS011;3276;48.490;9.222;2023-11-21T06:57:11;3.50;;;1.70;;
6485;SDS011;3276;48.490;9.222;2023-11-21T06:59:36;3.70;;;1.43;;
6485;SDS011;3276;48.490;9.222;2023-11-21T07:02:02;3.23;;;1.07;;
6485;SDS011;3276;48.490;9.222;2023-11-21T07:04:29;2.63;;;1.87;;
6485;SDS011;3276;48.490;9.222;2023-11-21T07:06:55;6.70;;;2.20;;
6485;SDS011;3276;48.490;9.222;2023-11-21T07:09:21;5.23;;;1.83;;
6485;SDS011;3276;48.490;9.222;2023-11-21T07:11:47;3.90;;;2.40;;
6485;SDS011;3276;48.490;9.222;2023-11-21T07:14:13;3.77;;;2.23;;
6485;SDS011;3276;48.490;9.222;2023-11-21T07:16:39;4.13;;;2.90;;
6485;SDS011;3276;48.490;9.222;2023-11-21T07:19:05;2.60;;;2.03;;
6485;SDS011;3276;48.490;9.222;2023-11-21T07:21:32;5.30;;;2.40;;
6485;SDS011;3276;48.490;9.222;2023-11-21T07:23:59;3.00;;;2.23;;
6485;SDS011;3276;48.490;9.222;2023-11-21T07:26:26;2.30;;;1.30;;
6485;SDS011;3276;48.490;9.222;2023-11-21T07:28:52;2.30;;;1.30;;
6485;SDS011;3276;48.490;9.222;2023-11-21T07:31:17;2.23;;;0.90;;
6485;SDS011;3276;48.490;9.222;2023-11-21T07:33:44;2.33;;;1.10;;
6485;SDS011;3276;48.490;9.222;2023-11-21T07:36:12;2.40;;;1.20;;
6485;SDS011;3276;48.490;9.222;2023-11-21T07:38:38;2.63;;;1.10;;
6485;SDS011;3276;48.490;9.222;2023-11-21T07:41:04;1.90;;;1.07;;
6485;SDS011;3276;48.490;9.222;2023-11-21T07:43:29;2.70;;;1.40;;
6485;SDS011;3276;48.490;9.222;2023-11-21T07:46:00;1.70;;;0.80;;
6485;SDS011;3276;48.490;9.222;2023-11-21T07:48:32;2.57;;;1.00;;
6485;SDS011;3276;48.490;9.222;2023-11-21T07:50:58;1.93;;;0.80;;
6485;SDS011;3276;48.490;9.222;2023-11-21T07:53:24;3.80;;;1.80;;
6485;SDS011;3276;48.490;9.222;2023-11-21T07:55:55;2.70;;;1.20;;
6485;SDS011;3276;48.490;9.222;2023-11-21T07:58:20;2.23;;;0.70;;
6485;SDS011;3276;48.490;9.222;2023-11-21T08:00:46;47.60;;;8.20;;
6485;SDS011;3276;48.490;9.222;2023-11-21T08:03:15;50.63;;;10.87;;
6485;SDS011;3276;48.490;9.222;2023-11-21T08:05:41;10.37;;;2.50;;
6485;SDS011;3276;48.490;9.222;2023-11-21T08:08:06;5.43;;;1.87;;
6485;SDS011;3276;48.490;9.222;2023-11-21T08:10:32;2.13;;;0.80;;
6485;SDS011;3276;48.490;9.222;2023-11-21T08:12:58;1.80;;;0.67;;
6485;SDS011;3276;48.490;9.222;2023-11-21T08:15:23;1.93;;;0.80;;
6485;SDS011;3276;48.490;9.222;2023-11-21T08:17:49;2.20;;;0.63;;
6485;SDS011;3276;48.490;9.222;2023-11-21T08:20:14;1.60;;;0.60;;
6485;SDS011;3276;48.490;9.222;2023-11-21T08:22:41;2.00;;;0.57;;
6485;SDS011;3276;48.490;9.222;2023-11-21T08:25:10;2.03;;;0.70;;
6485;SDS011;3276;48.490;9.222;2023-11-21T08:27:36;1.93;;;0.80;;
6485;SDS011;3276;48.490;9.222;2023-11-21T08:30:05;2.20;;;0.83;;
6485;SDS011;3276;48.490;9.222;2023-11-21T08:32:32;2.07;;;0.87;;
6485;SDS011;3276;48.490;9.222;2023-11-21T08:34:58;1.80;;;0.77;;
6485;SDS011;3276;48.490;9.222;2023-11-21T08:37:25;3.03;;;0.77;;
6485;SDS011;3276;48.490;9.222;2023-11-21T08:39:52;1.90;;;1.10;;
6485;SDS011;3276;48.490;9.222;2023-11-21T08:42:18;1.63;;;0.80;;
6485;SDS011;3276;48.490;9.222;2023-11-21T08:44:43;2.17;;;0.70;;
6485;SDS011;3276;48.490;9.222;2023-11-21T08:47:09;2.53;;;0.90;;
6485;SDS011;3276;48.490;9.222;2023-11-21T08:49:35;3.60;;;0.97;;
6485;SDS011;3276;48.490;9.222;2023-11-21T08:52:00;1.93;;;0.83;;
6485;SDS011;3276;48.490;9.222;2023-11-21T08:54:26;1.80;;;0.77;;
6485;SDS011;3276;48.490;9.222;2023-11-21T08:56:52;1.60;;;0.70;;
6485;SDS011;3276;48.490;9.222;2023-11-21T08:59:18;1.60;;;0.50;;
6485;SDS011;3276;48.490;9.222;2023-11-21T09:01:45;1.90;;;0.63;;
6485;SDS011;3276;48.490;9.222;2023-11-21T09:04:11;4.87;;;1.50;;
6485;SDS011;3276;48.490;9.222;2023-11-21T09:06:37;2.10;;;0.80;;
6485;SDS011;3276;48.490;9.222;2023-11-21T09:09:03;1.90;;;0.70;;
6485;SDS011;3276;48.490;9.222;2023-11-21T09:11:33;2.00;;;0.80;;
6485;SDS011;3276;48.490;9.222;2023-11-21T09:14:02;2.10;;;0.70;;
6485;SDS011;3276;48.490;9.222;2023-11-21T09:16:28;3.03;;;0.90;;
6485;SDS011;3276;48.490;9.222;2023-11-21T09:18:54;2.07;;;1.20;;
6485;SDS011;3276;48.490;9.222;2023-11-21T09:21:20;2.17;;;1.07;;
6485;SDS011;3276;48.490;9.222;2023-11-21T09:23:45;2.13;;;1.20;;
6485;SDS011;3276;48.490;9.222;2023-11-21T09:26:11;3.03;;;1.00;;
6485;SDS011;3276;48.490;9.222;2023-11-21T09:28:37;2.10;;;1.07;;
6485;SDS011;3276;48.490;9.222;2023-11-21T09:31:03;1.70;;;0.70;;
6485;SDS011;3276;48.490;9.222;2023-11-21T09:33:34;2.00;;;1.00;;
6485;SDS011;3276;48.490;9.222;2023-11-21T09:36:00;2.20;;;1.00;;
6485;SDS011;3276;48.490;9.222;2023-11-21T09:38:29;2.10;;;1.00;;
6485;SDS011;3276;48.490;9.222;2023-11-21T09:40:55;2.37;;;0.90;;
6485;SDS011;3276;48.490;9.222;2023-11-21T09:43:23;2.37;;;1.03;;
6485;SDS011;3276;48.490;9.222;2023-11-21T09:45:54;1.77;;;0.80;;
6485;SDS011;3276;48.490;9.222;2023-11-21T09:48:24;2.37;;;0.97;;
6485;SDS011;3276;48.490;9.222;2023-11-21T09:50:51;2.63;;;1.10;;
6485;SDS011;3276;48.490;9.222;2023-11-21T09:53:19;2.33;;;1.37;;
6485;SDS011;3276;48.490;9.222;2023-11-21T09:55:46;2.80;;;0.93;;
6485;SDS011;3276;48.490;9.222;2023-11-21T09:58:15;1.80;;;1.10;;
6485;SDS011;3276;48.490;9.222;2023-11-21T10:00:43;2.10;;;0.93;;
6485;SDS011;3276;48.490;9.222;2023-11-21T10:03:10;2.10;;;1.00;;
6485;SDS011;3276;48.490;9.222;2023-11-21T10:05:36;2.67;;;0.87;;
6485;SDS011;3276;48.490;9.222;2023-11-21T10:08:09;3.10;;;1.00;;
6485;SDS011;3276;48.490;9.222;2023-11-21T10:10:36;1.77;;;0.83;;
6485;SDS011;3276;48.490;9.222;2023-11-21T10:13:03;3.70;;;0.90;;
6485;SDS011;3276;48.490;9.222;2023-11-21T10:15:33;1.80;;;0.70;;
6485;SDS011;3276;48.490;9.222;2023-11-21T10:18:03;2.00;;;1.00;;
6485;SDS011;3276;48.490;9.222;2023-11-21T10:20:30;2.13;;;0.97;;
6485;SDS011;3276;48.490;9.222;2023-11-21T10:22:56;1.80;;;0.80;;
6485;SDS011;3276;48.490;9.222;2023-11-21T10:25:22;2.20;;;0.80;;
6485;SDS011;3276;48.490;9.222;2023-11-21T10:27:48;3.60;;;0.90;;
6485;SDS011;3276;48.490;9.222;2023-11-21T10:30:17;2.83;;;1.00;;
6485;SDS011;3276;48.490;9.222;2023-11-21T10:32:43;1.70;;;0.80;;
6485;SDS011;3276;48.490;9.222;2023-11-21T10:35:09;2.00;;;0.83;;
6485;SDS011;3276;48.490;9.222;2023-11-21T10:37:39;2.63;;;1.10;;
6485;SDS011;3276;48.490;9.222;2023-11-21T10:40:08;3.90;;;1.03;;
6485;SDS011;3276;48.490;9.222;2023-11-21T10:42:37;2.10;;;1.27;;
6485;SDS011;3276;48.490;9.222;2023-11-21T10:45:04;3.03;;;1.00;;
6485;SDS011;3276;48.490;9.222;2023-11-21T10:47:38;1.87;;;0.80;;
6485;SDS011;3276;48.490;9.222;2023-11-21T10:50:05;2.00;;;0.93;;
6485;SDS011;3276;48.490;9.222;2023-11-21T10:52:30;2.37;;;0.93;;
6485;SDS011;3276;48.490;9.222;2023-11-21T10:54:56;1.60;;;0.70;;
6485;SDS011;3276;48.490;9.222;2023-11-21T10:57:24;2.10;;;0.97;;
6485;SDS011;3276;48.490;9.222;2023-11-21T10:59:50;1.67;;;0.67;;
6485;SDS011;3276;48.490;9.222;2023-11-21T11:04:53;2.00;;;0.87;;
6485;SDS011;3276;48.490;9.222;2023-11-21T11:07:20;1.70;;;0.90;;
6485;SDS011;3276;48.490;9.222;2023-11-21T11:09:49;5.03;;;1.40;;
6485;SDS011;3276;48.490;9.222;2023-11-21T11:12:15;2.00;;;1.00;;
6485;SDS011;3276;48.490;9.222;2023-11-21T11:14:42;2.20;;;1.40;;
6485;SDS011;3276;48.490;9.222;2023-11-21T11:17:09;3.07;;;1.00;;
6485;SDS011;3276;48.490;9.222;2023-11-21T11:19:35;2.57;;;1.10;;
6485;SDS011;3276;48.490;9.222;2023-11-21T11:24:54;1.73;;;0.77;;
6485;SDS011;3276;48.490;9.222;2023-11-21T11:27:47;3.20;;;0.90;;
6485;SDS011;3276;48.490;9.222;2023-11-21T11:33:03;1.90;;;0.90;;
6485;SDS011;3276;48.490;9.222;2023-11-21T11:38:26;1.60;;;0.70;;
6485;SDS011;3276;48.490;9.222;2023-11-21T11:40:55;2.10;;;0.80;;
6485;SDS011;3276;48.490;9.222;2023-11-21T11:43:27;1.70;;;0.70;;
6485;SDS011;3276;48.490;9.222;2023-11-21T11:45:57;1.90;;;0.70;;
6485;SDS011;3276;48.490;9.222;2023-11-21T11:48:24;1.80;;;0.80;;
6485;SDS011;3276;48.490;9.222;2023-11-21T11:51:06;2.07;;;1.10;;
6485;SDS011;3276;48.490;9.222;2023-11-21T11:53:35;1.60;;;0.70;;
6485;SDS011;3276;48.490;9.222;2023-11-21T11:58:56;2.37;;;1.20;;
6485;SDS011;3276;48.490;9.222;2023-11-21T12:01:26;3.53;;;1.80;;
6485;SDS011;3276;48.490;9.222;2023-11-21T12:04:34;2.07;;;1.20;;
6485;SDS011;3276;48.490;9.222;2023-11-21T12:06:45;3.53;;;1.63;;
6485;SDS011;3276;48.490;9.222;2023-11-21T12:09:32;2.67;;;1.20;;
6485;SDS011;3276;48.490;9.222;2023-11-21T12:11:57;2.33;;;0.87;;
6485;SDS011;3276;48.490;9.222;2023-11-21T12:14:23;2.20;;;0.77;;
6485;SDS011;3276;48.490;9.222;2023-11-21T12:16:49;2.07;;;0.80;;
6485;SDS011;3276;48.490;9.222;2023-11-21T12:19:16;3.80;;;1.13;;
6485;SDS011;3276;48.490;9.222;2023-11-21T12:21:42;3.00;;;1.37;;
6485;SDS011;3276;48.490;9.222;2023-11-21T12:24:09;3.40;;;1.80;;
6485;SDS011;3276;48.490;9.222;2023-11-21T12:26:35;2.37;;;1.13;;
6485;SDS011;3276;48.490;9.222;2023-11-21T12:29:03;1.93;;;1.17;;
6485;SDS011;3276;48.490;9.222;2023-11-21T12:31:29;2.27;;;1.10;;
6485;SDS011;3276;48.490;9.222;2023-11-21T12:33:55;5.23;;;1.50;;
6485;SDS011;3276;48.490;9.222;2023-11-21T12:36:22;3.70;;;1.30;;
6485;SDS011;3276;48.490;9.222;2023-11-21T12:38:48;3.10;;;1.00;;
6485;SDS011;3276;48.490;9.222;2023-11-21T12:41:14;1.90;;;1.00;;
6485;SDS011;3276;48.490;9.222;2023-11-21T12:43:42;2.93;;;1.10;;
6485;SDS011;3276;48.490;9.222;2023-11-21T12:46:08;2.40;;;1.20;;
6485;SDS011;3276;48.490;9.222;2023-11-21T12:48:42;2.53;;;1.00;;
6485;SDS011;3276;48.490;9.222;2023-11-21T12:51:09;3.30;;;1.27;;
6485;SDS011;3276;48.490;9.222;2023-11-21T12:53:41;1.60;;;0.80;;
6485;SDS011;3276;48.490;9.222;2023-11-21T12:56:09;2.27;;;1.13;;
6485;SDS011;3276;48.490;9.222;2023-11-21T12:58:36;4.17;;;1.10;;
6485;SDS011;3276;48.490;9.222;2023-11-21T13:01:06;2.40;;;1.10;;
6485;SDS011;3276;48.490;9.222;2023-11-21T13:03:37;1.87;;;0.93;;
6485;SDS011;3276;48.490;9.222;2023-11-21T13:06:04;1.70;;;0.70;;
6485;SDS011;3276;48.490;9.222;2023-11-21T13:08:30;1.67;;;0.80;;
6485;SDS011;3276;48.490;9.222;2023-11-21T13:10:57;2.00;;;1.03;;
6485;SDS011;3276;48.490;9.222;2023-11-21T13:13:23;2.57;;;1.07;;
6485;SDS011;3276;48.490;9.222;2023-11-21T13:15:56;2.87;;;1.43;;
6485;SDS011;3276;48.490;9.222;2023-11-21T13:18:29;4.90;;;1.50;;
6485;SDS011;3276;48.490;9.222;2023-11-21T13:20:56;3.07;;;1.07;;
6485;SDS011;3276;48.490;9.222;2023-11-21T13:23:23;4.17;;;1.40;;
6485;SDS011;3276;48.490;9.222;2023-11-21T13:25:49;2.17;;;1.23;;
6485;SDS011;3276;48.490;9.222;2023-11-21T13:28:16;2.50;;;1.10;;
6485;SDS011;3276;48.490;9.222;2023-11-21T13:30:43;2.63;;;1.30;;
6485;SDS011;3276;48.490;9.222;2023-11-21T13:33:09;2.20;;;0.90;;
6485;SDS011;3276;48.490;9.222;2023-11-21T13:35:38;5.83;;;1.37;;
6485;SDS011;3276;48.490;9.222;2023-11-21T13:38:08;2.13;;;1.00;;
6485;SDS011;3276;48.490;9.222;2023-11-21T13:40:38;2.13;;;1.10;;
6485;SDS011;3276;48.490;9.222;2023-11-21T13:43:09;2.10;;;1.03;;
6485;SDS011;3276;48.490;9.222;2023-11-21T13:45:36;2.30;;;1.00;;
6485;SDS011;3276;48.490;9.222;2023-11-21T13:48:04;3.10;;;1.70;;
6485;SDS011;3276;48.490;9.222;2023-11-21T13:50:34;2.47;;;1.40;;
6485;SDS011;3276;48.490;9.222;2023-11-21T13:53:04;3.77;;;2.20;;
6485;SDS011;3276;48.490;9.222;2023-11-21T13:55:50;2.37;;;1.33;;
6485;SDS011;3276;48.490;9.222;2023-11-21T13:58:19;2.60;;;1.77;;
6485;SDS011;3276;48.490;9.222;2023-11-21T14:00:57;2.67;;;2.00;;
6485;SDS011;3276;48.490;9.222;2023-11-21T14:03:23;3.70;;;2.50;;
6485;SDS011;3276;48.490;9.222;2023-11-21T14:05:57;2.10;;;1.30;;
6485;SDS011;3276;48.490;9.222;2023-11-21T14:08:25;3.40;;;2.80;;
6485;SDS011;3276;48.490;9.222;2023-11-21T14:10:56;2.93;;;1.93;;
6485;SDS011;3276;48.490;9.222;2023-11-21T14:13:24;3.43;;;1.93;;
6485;SDS011;3276;48.490;9.222;2023-11-21T14:15:50;2.63;;;1.30;;
6485;SDS011;3276;48.490;9.222;2023-11-21T14:18:22;2.33;;;1.17;;
6485;SDS011;3276;48.490;9.222;2023-11-21T14:20:55;2.50;;;1.37;;
6485;SDS011;3276;48.490;9.222;2023-11-21T14:23:21;2.63;;;2.10;;
6485;SDS011;3276;48.490;9.222;2023-11-21T14:25:48;2.43;;;1.83;;
6485;SDS011;3276;48.490;9.222;2023-11-21T14:28:14;3.40;;;1.40;;
6485;SDS011;3276;48.490;9.222;2023-11-21T14:30:40;7.23;;;2.40;;
6485;SDS011;3276;48.490;9.222;2023-11-21T14:33:07;2.53;;;1.60;;
6485;SDS011;3276;48.490;9.222;2023-11-21T14:35:34;3.07;;;1.93;;
6485;SDS011;3276;48.490;9.222;2023-11-21T14:38:00;2.63;;;2.07;;
6485;SDS011;3276;48.490;9.222;2023-11-21T14:40:29;4.97;;;2.03;;
6485;SDS011;3276;48.490;9.222;2023-11-21T14:43:01;3.47;;;2.23;;
6485;SDS011;3276;48.490;9.222;2023-11-21T14:45:30;3.70;;;1.53;;
6485;SDS011;3276;48.490;9.222;2023-11-21T14:47:56;2.97;;;1.70;;
6485;SDS011;3276;48.490;9.222;2023-11-21T14:50:31;3.93;;;1.73;;
6485;SDS011;3276;48.490;9.222;2023-11-21T14:53:06;3.43;;;1.90;;
6485;SDS011;3276;48.490;9.222;2023-11-21T14:55:35;2.20;;;1.53;;
6485;SDS011;3276;48.490;9.222;2023-11-21T14:58:16;2.60;;;1.50;;
6485;SDS011;3276;48.490;9.222;2023-11-21T15:00:51;2.50;;;1.50;;
6485;SDS011;3276;48.490;9.222;2023-11-21T15:03:27;2.50;;;1.63;;
6485;SDS011;3276;48.490;9.222;2023-11-21T15:05:56;2.40;;;1.60;;
6485;SDS011;3276;48.490;9.222;2023-11-21T15:08:22;2.40;;;1.80;;
6485;SDS011;3276;48.490;9.222;2023-11-21T15:10:56;3.30;;;1.97;;
6485;SDS011;3276;48.490;9.222;2023-11-21T15:13:22;3.53;;;2.90;;
6485;SDS011;3276;48.490;9.222;2023-11-21T15:15:50;4.50;;;3.13;;
6485;SDS011;3276;48.490;9.222;2023-11-21T15:18:15;4.53;;;2.73;;
6485;SDS011;3276;48.490;9.222;2023-11-21T15:20:42;3.40;;;2.50;;
6485;SDS011;3276;48.490;9.222;2023-11-21T15:23:09;7.40;;;3.40;;
6485;SDS011;3276;48.490;9.222;2023-11-21T15:25:35;5.10;;;3.53;;
6485;SDS011;3276;48.490;9.222;2023-11-21T15:28:04;4.50;;;2.70;;